createdAt,value
2019-05-21T00:02:10.947Z,101022.97
2019-05-21T00:04:37.921Z,101019.66
2019-05-21T00:07:04.896Z,101019.83
2019-05-21T00:09:31.848Z,101019.10
2019-05-21T00:11:58.841Z,101018.28
2019-05-21T00:14:25.810Z,101018.39
2019-05-21T00:16:52.753Z,101010.16
2019-05-21T00:19:19.749Z,101005.94
2019-05-21T00:21:46.693Z,101009.41
2019-05-21T00:24:13.655Z,101001.98
2019-05-21T00:26:40.668Z,101007.48
2019-05-21T00:29:44.312Z,101000.42
2019-05-21T00:32:48.203Z,100998.67
2019-05-21T00:35:52.542Z,101006.59
2019-05-21T00:38:55.965Z,101008.80
2019-05-21T00:42:00.029Z,101000.72
2019-05-21T00:44:28.598Z,101000.97
2019-05-21T00:46:55.585Z,100995.63
2019-05-21T00:49:22.565Z,100999.33
2019-05-21T00:51:49.515Z,100999.33
2019-05-21T00:54:16.505Z,101002.62
2019-05-21T00:56:43.468Z,100998.02
2019-05-21T00:59:10.418Z,100998.61
2019-05-21T01:01:37.410Z,100992.95
2019-05-21T01:04:04.360Z,100990.22
2019-05-21T01:06:31.316Z,100981.48
2019-05-21T01:08:58.354Z,100992.54
2019-05-21T01:11:25.356Z,100990.56
2019-05-21T01:13:52.311Z,100984.83
2019-05-21T01:16:19.304Z,100989.94
2019-05-21T01:18:46.271Z,100991.76
2019-05-21T01:21:13.240Z,100982.68
2019-05-21T01:23:40.243Z,100987.80
2019-05-21T01:26:07.212Z,100985.76
2019-05-21T01:28:34.170Z,100983.39
2019-05-21T01:31:01.155Z,100985.04
2019-05-21T01:33:28.121Z,100987.50
2019-05-21T01:35:55.143Z,100984.70
2019-05-21T01:38:22.128Z,100989.72
2019-05-21T01:40:49.105Z,100987.75
2019-05-21T01:43:16.116Z,100997.32
2019-05-21T01:45:43.096Z,100992.47
2019-05-21T01:48:10.040Z,100995.00
2019-05-21T01:50:37.030Z,100996.64
2019-05-21T01:53:04.034Z,100994.45
2019-05-21T01:55:30.962Z,100997.69
2019-05-21T01:57:57.961Z,101002.22
2019-05-21T02:00:24.930Z,101006.52
2019-05-21T02:02:51.885Z,101004.12
2019-05-21T02:05:32.139Z,101011.79
2019-05-21T02:07:47.764Z,101014.44
2019-05-21T02:10:14.790Z,101015.50
2019-05-21T02:12:41.791Z,101017.28
2019-05-21T02:15:08.845Z,101021.31
2019-05-21T02:17:35.812Z,101015.95
2019-05-21T02:20:03.139Z,101024.39
2019-05-21T02:22:30.104Z,101024.39
2019-05-21T02:24:57.062Z,101016.73
2019-05-21T02:27:24.048Z,101018.41
2019-05-21T02:29:51.025Z,101018.30
2019-05-21T02:32:17.992Z,101017.66
2019-05-21T02:34:44.984Z,101025.65
2019-05-21T02:37:11.949Z,101017.80
2019-05-21T02:39:38.958Z,101013.20
2019-05-21T02:42:05.995Z,101018.78
2019-05-21T02:44:33.013Z,101014.00
2019-05-21T02:47:00.010Z,101017.48
2019-05-21T02:49:26.990Z,101013.69
2019-05-21T02:51:53.969Z,101026.20
2019-05-21T02:54:37.503Z,101031.70
2019-05-21T02:56:49.809Z,101027.92
2019-05-21T02:59:16.777Z,101029.30
2019-05-21T03:01:50.418Z,101036.66
2019-05-21T03:04:17.384Z,101028.41
2019-05-21T03:06:44.350Z,101036.99
2019-05-21T03:09:11.325Z,101036.20
2019-05-21T03:11:38.378Z,101039.38
2019-05-21T03:14:05.415Z,101037.17
2019-05-21T03:16:32.361Z,101030.00
2019-05-21T03:18:59.438Z,101045.47
2019-05-21T03:21:26.395Z,101048.16
2019-05-21T03:23:53.358Z,101054.41
2019-05-21T03:26:20.376Z,101057.99
2019-05-21T03:28:47.349Z,101062.77
2019-05-21T03:31:14.315Z,101071.75
2019-05-21T03:33:41.341Z,101076.85
2019-05-21T03:36:08.378Z,101082.23
2019-05-21T03:38:35.379Z,101089.17
2019-05-21T03:41:02.434Z,101095.00
2019-05-21T03:43:29.425Z,101097.77
2019-05-21T03:45:56.427Z,101103.56
2019-05-21T03:48:23.436Z,101113.10
2019-05-21T03:50:50.495Z,101116.88
2019-05-21T03:53:17.439Z,101127.89
2019-05-21T03:55:44.511Z,101124.14
2019-05-21T03:58:11.475Z,101119.38
2019-05-21T04:00:38.470Z,101120.95
2019-05-21T04:03:06.094Z,101119.03
2019-05-21T04:05:33.063Z,101116.92
2019-05-21T04:08:00.038Z,101117.22
2019-05-21T04:10:27.641Z,101110.60
2019-05-21T04:13:07.589Z,101114.94
2019-05-21T04:15:55.515Z,101117.36
2019-05-21T04:18:27.050Z,101113.53
2019-05-21T04:20:54.088Z,101113.53
2019-05-21T04:23:21.105Z,101105.75
2019-05-21T04:25:48.075Z,101105.75
2019-05-21T04:28:15.039Z,101115.07
2019-05-21T04:30:42.036Z,101110.03
2019-05-21T04:33:09.001Z,101106.34
2019-05-21T04:35:35.945Z,101113.11
2019-05-21T04:38:02.950Z,101122.77
2019-05-21T04:40:29.923Z,101112.52
2019-05-21T04:42:59.200Z,101118.91
2019-05-21T04:45:25.772Z,101118.91
2019-05-21T04:47:52.774Z,101118.75
2019-05-21T04:50:19.722Z,101115.88
2019-05-21T04:52:46.751Z,101124.11
2019-05-21T04:55:13.806Z,101121.69
2019-05-21T04:57:40.771Z,101127.84
2019-05-21T05:00:07.854Z,101137.91
2019-05-21T05:02:34.821Z,101142.37
2019-05-21T05:05:01.951Z,101143.67
2019-05-21T05:07:29.112Z,101137.36
2019-05-21T05:09:56.094Z,101135.70
2019-05-21T05:12:23.045Z,101137.94
2019-05-21T05:14:50.091Z,101127.75
2019-05-21T05:17:17.053Z,101131.56
2019-05-21T05:19:44.009Z,101138.85
2019-05-21T05:22:10.995Z,101136.27
2019-05-21T05:24:37.971Z,101136.21
2019-05-21T05:27:04.991Z,101140.06
2019-05-21T05:29:31.976Z,101140.06
2019-05-21T05:31:58.928Z,101139.42
2019-05-21T05:34:25.877Z,101138.25
2019-05-21T05:36:52.855Z,101141.63
2019-05-21T05:39:19.836Z,101144.64
2019-05-21T05:41:46.817Z,101147.80
2019-05-21T05:44:13.788Z,101151.02
2019-05-21T05:46:40.781Z,101154.14
2019-05-21T05:49:16.474Z,101151.27
2019-05-21T05:51:43.671Z,101145.73
2019-05-21T05:54:10.622Z,101140.94
2019-05-21T05:56:37.809Z,101141.38
2019-05-21T05:59:04.753Z,101138.87
2019-05-21T06:01:33.120Z,101136.50
2019-05-21T06:04:00.097Z,101140.80
2019-05-21T06:06:27.063Z,101150.32
2019-05-21T06:08:54.030Z,101153.37
2019-05-21T06:11:21.143Z,101153.80
2019-05-21T06:13:48.161Z,101162.45
2019-05-21T06:16:15.122Z,101156.89
2019-05-21T06:18:42.105Z,101158.19
2019-05-21T06:21:09.067Z,101160.02
2019-05-21T06:23:36.079Z,101164.15
2019-05-21T06:26:03.314Z,101161.34
2019-05-21T06:28:30.302Z,101168.54
2019-05-21T06:30:57.275Z,101170.35
2019-05-21T06:33:24.233Z,101170.75
2019-05-21T06:35:51.218Z,101168.54
2019-05-21T06:38:18.584Z,101165.95
2019-05-21T06:40:45.657Z,101167.56
2019-05-21T06:43:12.657Z,101171.11
2019-05-21T06:45:39.835Z,101170.02
2019-05-21T06:48:06.835Z,101170.94
2019-05-21T06:50:37.245Z,101170.94
2019-05-21T06:53:02.708Z,101179.84
2019-05-21T06:55:29.685Z,101176.11
2019-05-21T06:57:56.691Z,101180.36
2019-05-21T07:00:23.957Z,101183.42
2019-05-21T07:02:50.914Z,101182.02
2019-05-21T07:05:17.887Z,101191.72
2019-05-21T07:07:44.847Z,101193.41
2019-05-21T07:10:12.399Z,101193.85
2019-05-21T07:12:39.398Z,101195.95
2019-05-21T07:15:06.571Z,101207.13
2019-05-21T07:17:33.538Z,101208.12
2019-05-21T07:20:00.546Z,101209.81
2019-05-21T07:22:27.513Z,101205.14
2019-05-21T07:24:54.484Z,101205.12
2019-05-21T07:27:21.546Z,101204.32
2019-05-21T07:29:48.505Z,101208.28
2019-05-21T07:32:15.468Z,101205.44
2019-05-21T07:34:42.447Z,101212.91
2019-05-21T07:37:09.430Z,101211.17
2019-05-21T07:39:36.399Z,101210.50
2019-05-21T07:42:03.407Z,101214.69
2019-05-21T07:44:30.355Z,101218.53
2019-05-21T07:46:57.378Z,101211.92
2019-05-21T07:49:24.407Z,101221.23
2019-05-21T07:51:51.389Z,101227.19
2019-05-21T07:54:18.358Z,101226.80
2019-05-21T07:56:45.370Z,101240.23
2019-05-21T07:59:12.325Z,101242.14
2019-05-21T08:01:39.286Z,101248.67
2019-05-21T08:04:06.441Z,101249.48
2019-05-21T08:06:33.454Z,101246.58
2019-05-21T08:09:12.396Z,101247.03
2019-05-21T08:11:29.354Z,101250.80
2019-05-21T08:13:56.441Z,101255.19
2019-05-21T08:16:23.409Z,101257.32
2019-05-21T08:18:50.374Z,101268.63
2019-05-21T08:21:17.333Z,101267.39
2019-05-21T08:23:44.302Z,101268.65
2019-05-21T08:26:11.266Z,101267.81
2019-05-21T08:28:38.287Z,101270.03
2019-05-21T08:31:05.253Z,101276.44
2019-05-21T08:33:32.317Z,101278.03
2019-05-21T08:35:59.836Z,101275.69
2019-05-21T08:38:26.824Z,101269.59
2019-05-21T08:40:53.787Z,101274.72
2019-05-21T08:43:22.245Z,101272.88
2019-05-21T08:45:49.353Z,101281.65
2019-05-21T08:48:16.374Z,101278.84
2019-05-21T08:50:43.343Z,101276.61
2019-05-21T08:53:10.341Z,101275.66
2019-05-21T08:55:37.318Z,101275.74
2019-05-21T08:58:07.369Z,101270.78
2019-05-21T09:00:33.183Z,101283.20
2019-05-21T09:03:00.221Z,101279.62
2019-05-21T09:05:27.190Z,101286.07
2019-05-21T09:07:54.337Z,101284.09
2019-05-21T09:10:21.346Z,101284.45
2019-05-21T09:12:48.323Z,101285.62
2019-05-21T09:15:16.698Z,101283.05
2019-05-21T09:17:43.814Z,101292.66
2019-05-21T09:20:11.785Z,101287.66
2019-05-21T09:22:38.838Z,101294.21
2019-05-21T09:25:07.075Z,101293.02
2019-05-21T09:27:36.410Z,101296.00
2019-05-21T09:30:05.029Z,101288.06
2019-05-21T09:32:32.106Z,101296.13
2019-05-21T09:34:59.100Z,101289.21
2019-05-21T09:37:26.037Z,101288.91
2019-05-21T09:39:53.037Z,101286.08
2019-05-21T09:42:19.994Z,101298.07
2019-05-21T09:44:46.998Z,101293.27
2019-05-21T09:47:13.999Z,101291.06
2019-05-21T09:49:40.991Z,101291.75
2019-05-21T09:52:07.955Z,101292.13
2019-05-21T09:54:35.069Z,101288.69
2019-05-21T09:57:03.410Z,101285.97
2019-05-21T09:59:37.838Z,101288.91
2019-05-21T10:02:09.229Z,101285.50
2019-05-21T10:04:36.197Z,101282.53
2019-05-21T10:07:03.409Z,101282.98
2019-05-21T10:09:30.382Z,101287.78
2019-05-21T10:11:57.377Z,101289.08
2019-05-21T10:14:24.341Z,101301.11
2019-05-21T10:16:51.303Z,101302.43
2019-05-21T10:19:18.325Z,101312.77
2019-05-21T10:21:45.274Z,101311.69
2019-05-21T10:24:12.237Z,101311.41
2019-05-21T10:26:39.216Z,101309.37
2019-05-21T10:29:06.193Z,101310.12
2019-05-21T10:31:33.172Z,101312.77
2019-05-21T10:34:00.159Z,101308.56
2019-05-21T10:36:27.123Z,101304.34
2019-05-21T10:38:54.099Z,101304.08
2019-05-21T10:41:21.085Z,101303.63
2019-05-21T10:43:48.100Z,101305.31
2019-05-21T10:46:15.141Z,101300.77
2019-05-21T10:48:42.122Z,101302.11
2019-05-21T10:51:09.486Z,101306.58
2019-05-21T10:53:36.482Z,101307.57
2019-05-21T10:56:03.616Z,101300.67
2019-05-21T10:58:30.676Z,101304.08
2019-05-21T11:01:05.302Z,101299.34
2019-05-21T11:04:03.964Z,101306.08
2019-05-21T11:06:31.192Z,101310.05
2019-05-21T11:08:58.172Z,101305.88
2019-05-21T11:11:25.137Z,101308.36
2019-05-21T11:13:52.102Z,101301.58
2019-05-21T11:16:19.108Z,101306.65
2019-05-21T11:18:46.067Z,101316.86
2019-05-21T11:21:13.039Z,101320.12
2019-05-21T11:23:40.051Z,101321.87
2019-05-21T11:26:07.141Z,101324.96
2019-05-21T11:28:34.136Z,101315.10
2019-05-21T11:31:01.132Z,101319.53
2019-05-21T11:33:28.116Z,101322.89
2019-05-21T11:35:55.094Z,101324.27
2019-05-21T11:38:22.084Z,101321.62
2019-05-21T11:40:51.127Z,101325.86
2019-05-21T11:43:18.024Z,101323.94
2019-05-21T11:45:45.003Z,101314.84
2019-05-21T11:48:12.009Z,101315.27
2019-05-21T11:50:39.590Z,101313.99
2019-05-21T11:53:07.346Z,101323.05
2019-05-21T11:55:34.284Z,101319.47
2019-05-21T11:58:01.282Z,101324.09
2019-05-21T12:00:28.492Z,101318.49
2019-05-21T12:02:55.497Z,101320.66
2019-05-21T12:05:22.637Z,101321.00
2019-05-21T12:07:49.640Z,101310.19
2019-05-21T12:10:16.595Z,101321.05
2019-05-21T12:12:43.740Z,101313.38
2019-05-21T12:15:11.047Z,101315.53
2019-05-21T12:17:38.043Z,101310.03
2019-05-21T12:20:06.058Z,101315.44
2019-05-21T12:22:32.989Z,101316.45
2019-05-21T12:24:59.995Z,101320.73
2019-05-21T12:27:26.930Z,101322.74
2019-05-21T12:29:53.890Z,101329.20
2019-05-21T12:32:21.484Z,101328.97
2019-05-21T12:34:48.904Z,101324.72
2019-05-21T12:37:15.879Z,101324.76
2019-05-21T12:39:42.830Z,101327.98
2019-05-21T12:42:09.896Z,101329.47
2019-05-21T12:44:36.849Z,101324.27
2019-05-21T12:47:03.861Z,101339.28
2019-05-21T12:49:31.987Z,101332.61
2019-05-21T12:51:59.094Z,101328.25
2019-05-21T12:54:26.118Z,101331.47
2019-05-21T12:56:53.114Z,101333.80
2019-05-21T12:59:20.008Z,101335.09
2019-05-21T13:01:46.992Z,101330.50
2019-05-21T13:04:13.961Z,101338.64
2019-05-21T13:06:40.927Z,101331.16
2019-05-21T13:09:08.390Z,101353.05
2019-05-21T13:11:35.489Z,101342.95
2019-05-21T13:14:02.440Z,101352.36
2019-05-21T13:16:29.408Z,101348.55
2019-05-21T13:18:56.378Z,101351.12
2019-05-21T13:21:23.446Z,101360.56
2019-05-21T13:23:50.531Z,101356.50
2019-05-21T13:26:17.489Z,101363.98
2019-05-21T13:28:44.470Z,101368.23
2019-05-21T13:31:11.445Z,101379.03
2019-05-21T13:33:38.421Z,101375.84
2019-05-21T13:36:05.402Z,101373.53
2019-05-21T13:38:32.370Z,101383.84
2019-05-21T13:40:59.630Z,101386.25
2019-05-21T13:43:26.633Z,101381.92
2019-05-21T13:45:53.586Z,101385.52
2019-05-21T13:48:20.586Z,101384.23
2019-05-21T13:50:47.575Z,101384.09
2019-05-21T13:53:14.653Z,101388.35
2019-05-21T13:55:41.645Z,101386.25
2019-05-21T13:58:08.674Z,101397.05
2019-05-21T14:00:51.730Z,101389.09
2019-05-21T14:03:18.706Z,101390.72
2019-05-21T14:05:45.965Z,101390.52
2019-05-21T14:08:12.921Z,101386.23
2019-05-21T14:10:39.947Z,101385.30
2019-05-21T14:13:07.026Z,101393.61
2019-05-21T14:15:33.976Z,101387.37
2019-05-21T14:18:00.958Z,101395.13
2019-05-21T14:20:27.989Z,101385.56
2019-05-21T14:22:55.023Z,101390.00
2019-05-21T14:25:22.105Z,101389.86
2019-05-21T14:27:49.153Z,101387.62
2019-05-21T14:30:16.118Z,101396.16
2019-05-21T14:32:43.076Z,101392.34
2019-05-21T14:35:10.031Z,101388.06
2019-05-21T14:37:36.996Z,101388.33
2019-05-21T14:40:07.581Z,101389.52
2019-05-21T14:42:34.600Z,101380.71
2019-05-21T14:45:01.543Z,101388.23
2019-05-21T14:47:28.558Z,101387.25
2019-05-21T14:49:55.555Z,101390.18
2019-05-21T14:52:22.549Z,101390.22
2019-05-21T14:54:49.507Z,101391.45
2019-05-21T14:57:16.495Z,101389.84
2019-05-21T14:59:43.524Z,101398.09
2019-05-21T15:02:10.475Z,101398.73
2019-05-21T15:04:37.709Z,101400.84
2019-05-21T15:07:04.930Z,101406.64
2019-05-21T15:09:31.897Z,101411.02
2019-05-21T15:11:58.877Z,101406.05
2019-05-21T15:14:25.889Z,101420.70
2019-05-21T15:16:52.842Z,101422.84
2019-05-21T15:19:20.757Z,101417.23
2019-05-21T15:21:50.954Z,101413.55
2019-05-21T15:24:17.948Z,101415.02
2019-05-21T15:26:44.901Z,101427.23
2019-05-21T15:29:11.879Z,101426.70
2019-05-21T15:31:38.878Z,101420.53
2019-05-21T15:34:05.880Z,101431.98
2019-05-21T15:36:32.820Z,101431.96
2019-05-21T15:38:59.779Z,101434.96
2019-05-21T15:41:26.752Z,101437.53
2019-05-21T15:43:53.723Z,101433.95
2019-05-21T15:46:20.724Z,101439.88
2019-05-21T15:48:47.763Z,101439.25
2019-05-21T15:51:14.775Z,101443.06
2019-05-21T15:53:41.753Z,101442.91
2019-05-21T15:56:08.726Z,101446.94
2019-05-21T15:58:35.720Z,101448.59
2019-05-21T16:01:02.712Z,101455.33
2019-05-21T16:03:29.654Z,101455.48
2019-05-21T16:05:56.746Z,101462.27
2019-05-21T16:08:23.707Z,101457.30
2019-05-21T16:10:50.690Z,101466.74
2019-05-21T16:13:17.690Z,101469.95
2019-05-21T16:15:44.738Z,101470.35
2019-05-21T16:18:11.701Z,101468.52
2019-05-21T16:20:42.268Z,101468.58
2019-05-21T16:23:07.633Z,101468.02
2019-05-21T16:25:34.592Z,101471.05
2019-05-21T16:28:01.555Z,101467.69
2019-05-21T16:30:28.539Z,101477.38
2019-05-21T16:32:55.555Z,101478.83
2019-05-21T16:35:22.612Z,101478.06
2019-05-21T16:37:49.580Z,101480.50
2019-05-21T16:40:16.756Z,101474.24
2019-05-21T16:42:43.770Z,101480.71
2019-05-21T16:45:11.036Z,101478.42
2019-05-21T16:47:45.665Z,101480.71
2019-05-21T16:50:07.522Z,101477.98
2019-05-21T16:52:34.573Z,101484.92
2019-05-21T16:55:01.567Z,101484.28
2019-05-21T16:57:28.596Z,101480.10
2019-05-21T16:59:56.119Z,101488.57
2019-05-21T17:02:23.193Z,101491.22
2019-05-21T17:04:50.130Z,101486.36
2019-05-21T17:07:17.094Z,101484.09
2019-05-21T17:09:44.069Z,101494.81
2019-05-21T17:12:11.270Z,101492.38
2019-05-21T17:14:38.237Z,101500.97
2019-05-21T17:17:05.208Z,101499.36
2019-05-21T17:19:32.210Z,101502.98
2019-05-21T17:21:59.179Z,101492.81
2019-05-21T17:24:26.145Z,101496.44
2019-05-21T17:26:53.118Z,101495.46
2019-05-21T17:29:20.084Z,101498.65
2019-05-21T17:31:47.042Z,101502.00
2019-05-21T17:34:14.077Z,101509.08
2019-05-21T17:36:41.039Z,101500.84
2019-05-21T17:39:08.013Z,101506.92
2019-05-21T17:41:35.099Z,101497.23
2019-05-21T17:44:02.039Z,101501.71
2019-05-21T17:46:29.133Z,101503.70
2019-05-21T17:48:56.150Z,101504.87
2019-05-21T17:51:23.200Z,101506.42
2019-05-21T17:53:50.190Z,101518.23
2019-05-21T17:56:17.162Z,101515.22
2019-05-21T17:58:44.121Z,101513.30
2019-05-21T18:01:11.521Z,101513.48
2019-05-21T18:03:38.701Z,101514.52
2019-05-21T18:06:06.573Z,101511.37
2019-05-21T18:08:34.037Z,101517.39
2019-05-21T18:11:01.476Z,101510.17
2019-05-21T18:13:28.780Z,101513.19
2019-05-21T18:15:55.940Z,101523.45
2019-05-21T18:18:23.029Z,101529.85
2019-05-21T18:20:50.303Z,101528.83
2019-05-21T18:23:17.719Z,101536.23
2019-05-21T18:25:44.723Z,101536.23
2019-05-21T18:28:11.877Z,101538.87
2019-05-21T18:30:39.294Z,101543.52
2019-05-21T18:33:06.252Z,101542.48
2019-05-21T18:35:33.235Z,101547.24
2019-05-21T18:38:00.201Z,101540.45
2019-05-21T18:40:27.430Z,101551.18
2019-05-21T18:42:54.509Z,101552.13
2019-05-21T18:45:21.471Z,101556.49
2019-05-21T18:47:48.416Z,101554.44
2019-05-21T18:50:15.867Z,101560.30
2019-05-21T18:52:42.818Z,101572.37
2019-05-21T18:55:10.323Z,101575.55
2019-05-21T18:57:37.346Z,101570.44
2019-05-21T19:00:04.433Z,101581.95
2019-05-21T19:02:31.498Z,101587.80
2019-05-21T19:04:58.470Z,101581.52
2019-05-21T19:07:25.465Z,101592.89
2019-05-21T19:09:52.431Z,101591.83
2019-05-21T19:12:19.476Z,101599.70
2019-05-21T19:14:46.595Z,101598.60
2019-05-21T19:17:13.555Z,101604.35
2019-05-21T19:19:40.506Z,101607.36
2019-05-21T19:22:07.485Z,101617.32
2019-05-21T19:24:34.465Z,101608.17
2019-05-21T19:27:01.468Z,101608.17
2019-05-21T19:29:28.434Z,101619.55
2019-05-21T19:31:55.388Z,101623.92
2019-05-21T19:34:22.374Z,101622.44
2019-05-21T19:36:49.347Z,101616.09
2019-05-21T19:39:16.914Z,101623.16
2019-05-21T19:41:43.983Z,101627.88
2019-05-21T19:44:11.063Z,101620.32
2019-05-21T19:46:38.060Z,101630.80
2019-05-21T19:49:05.053Z,101629.77
2019-05-21T19:51:32.312Z,101637.73
2019-05-21T19:53:59.283Z,101639.38
2019-05-21T19:56:26.297Z,101639.38
2019-05-21T19:58:53.363Z,101645.05
2019-05-21T20:01:20.391Z,101640.93
2019-05-21T20:03:48.384Z,101637.16
2019-05-21T20:06:16.178Z,101650.23
2019-05-21T20:08:43.326Z,101641.61
2019-05-21T20:11:10.619Z,101642.00
2019-05-21T20:13:37.592Z,101625.56
2019-05-21T20:16:05.864Z,101635.58
2019-05-21T20:18:32.808Z,101644.17
2019-05-21T20:21:00.691Z,101645.31
2019-05-21T20:23:28.176Z,101650.09
2019-05-21T20:25:56.989Z,101649.42
2019-05-21T20:28:24.501Z,101657.27
2019-05-21T20:30:51.969Z,101655.23
2019-05-21T20:33:19.044Z,101656.70
2019-05-21T20:35:46.670Z,101658.20
2019-05-21T20:38:13.640Z,101658.91
2019-05-21T20:40:40.656Z,101656.27
2019-05-21T20:43:08.381Z,101656.27
2019-05-21T20:45:39.260Z,101661.30
2019-05-21T20:48:06.337Z,101653.13
2019-05-21T20:50:33.427Z,101662.38
2019-05-21T20:53:00.553Z,101660.23
2019-05-21T20:55:28.123Z,101664.08
2019-05-21T20:57:55.420Z,101660.23
2019-05-21T21:00:29.081Z,101661.30
2019-05-21T21:02:56.174Z,101662.58
2019-05-21T21:05:23.692Z,101648.39
2019-05-21T21:07:51.215Z,101645.36
2019-05-21T21:10:18.138Z,101656.98
2019-05-21T21:12:45.469Z,101655.77
2019-05-21T21:15:13.936Z,101651.53
2019-05-21T21:17:40.898Z,101653.63
2019-05-21T21:20:08.187Z,101653.84
2019-05-21T21:22:35.251Z,101654.48
2019-05-21T21:25:02.796Z,101658.30
2019-05-21T21:27:30.060Z,101660.95
2019-05-21T21:29:57.244Z,101658.38
2019-05-21T21:32:24.254Z,101657.72
2019-05-21T21:34:51.205Z,101662.84
2019-05-21T21:37:18.160Z,101662.23
2019-05-21T21:39:45.136Z,101665.68
2019-05-21T21:42:12.746Z,101665.83
2019-05-21T21:44:40.524Z,101671.05
2019-05-21T21:47:07.523Z,101673.22
2019-05-21T21:49:34.965Z,101668.37
2019-05-21T21:52:02.023Z,101672.36
2019-05-21T21:54:29.671Z,101671.65
2019-05-21T21:56:56.568Z,101671.65
2019-05-21T21:59:23.517Z,101667.91
2019-05-21T22:01:54.833Z,101670.33
2019-05-21T22:04:29.579Z,101674.36
2019-05-21T22:06:56.647Z,101678.67
2019-05-21T22:09:26.887Z,101675.00
2019-05-21T22:11:54.877Z,101673.78
2019-05-21T22:14:22.166Z,101682.25
2019-05-21T22:16:51.766Z,101676.36
2019-05-21T22:19:20.729Z,101686.28
2019-05-21T22:21:47.700Z,101692.94
2019-05-21T22:24:14.684Z,101683.27
2019-05-21T22:26:42.037Z,101685.44
2019-05-21T22:29:09.645Z,101683.20
2019-05-21T22:31:36.620Z,101688.80
2019-05-21T22:34:03.587Z,101682.42
2019-05-21T22:36:30.533Z,101689.32
2019-05-21T22:38:57.498Z,101679.45
2019-05-21T22:41:24.447Z,101683.02
2019-05-21T22:43:51.584Z,101689.88
2019-05-21T22:46:18.756Z,101683.39
2019-05-21T22:48:46.030Z,101683.39
2019-05-21T22:51:13.044Z,101684.55
2019-05-21T22:53:40.340Z,101681.80
2019-05-21T22:56:07.304Z,101673.34
2019-05-21T22:58:34.289Z,101671.70
2019-05-21T23:01:02.701Z,101671.70
2019-05-21T23:03:29.952Z,101676.12
2019-05-21T23:05:56.939Z,101678.12
2019-05-21T23:08:25.263Z,101671.76
2019-05-21T23:10:52.231Z,101680.45
2019-05-21T23:13:19.199Z,101685.90
2019-05-21T23:15:47.093Z,101700.02
2019-05-21T23:18:14.942Z,101687.41
2019-05-21T23:20:42.819Z,101687.41
2019-05-21T23:23:10.338Z,101695.70
2019-05-21T23:25:38.798Z,101684.97
2019-05-21T23:28:05.854Z,101684.97
2019-05-21T23:30:33.015Z,101693.46
2019-05-21T23:33:00.105Z,101689.73
2019-05-21T23:35:27.958Z,101691.90
2019-05-21T23:37:55.823Z,101696.36
2019-05-21T23:40:23.789Z,101695.91
2019-05-21T23:42:51.029Z,101695.91
2019-05-21T23:45:18.350Z,101679.66
2019-05-21T23:47:45.316Z,101684.20
2019-05-21T23:50:14.562Z,101687.72
2019-05-21T23:52:41.563Z,101687.72
2019-05-21T23:55:09.026Z,101685.36
2019-05-21T23:57:36.299Z,101691.33
